Time;durP1;ratioP1;P1;durP2;ratioP2;P2;SDS_P1;SDS_P2;PMS_P1;PMS_P2;Temp;Humidity;BMP_temperature;BMP_pressure;BME280_temperature;BME280_humidity;BME280_pressure;Samples;Min_cycle;Max_cycle;Signal;HPM_P1;HPM_P2
2022/01/14 00:01:45;;;;;;;29.97;13.47;;;3.80;99.90;3.60;102154.00;;;;5015365;27;87312;-68
2022/01/14 00:04:11;;;;;;;24.43;11.53;;;3.80;99.90;3.60;102157.00;;;;4996035;27;90041;-69
2022/01/14 00:06:39;;;;;;;21.87;11.57;;;3.70;99.90;3.50;102165.00;;;;4996211;27;87818;-68
2022/01/14 00:09:07;;;;;;;25.17;12.63;;;3.80;99.90;3.50;102164.00;;;;5000889;27;88637;-69
2022/01/14 00:11:40;;;;;;;22.57;10.97;;;3.80;99.90;3.50;102151.00;;;;4995639;27;87856;-69
2022/01/14 00:16:32;;;;;;;24.93;11.90;;;3.80;99.90;3.50;102148.00;;;;4991827;27;87991;-68
2022/01/14 00:18:58;;;;;;;22.03;11.80;;;3.70;99.90;3.50;102138.00;;;;4993440;28;113788;-69
2022/01/14 00:21:27;;;;;;;21.33;10.80;;;3.70;99.90;3.50;102133.00;;;;4978890;28;87558;-69
2022/01/14 00:24:04;;;;;;;27.90;13.07;;;3.70;99.90;3.50;102135.00;;;;4955025;28;90397;-69
2022/01/14 00:32:06;;;;;;;22.10;11.67;;;3.70;99.90;3.50;102129.00;;;;5010348;27;87537;-68
2022/01/14 00:34:32;;;;;;;27.80;11.13;;;3.70;99.90;3.50;102140.00;;;;4975685;28;90714;-70
2022/01/14 00:37:00;;;;;;;26.03;11.80;;;3.70;99.90;3.50;102128.00;;;;4993325;28;117624;-68
2022/01/14 00:39:26;;;;;;;28.30;11.80;;;3.70;99.90;3.50;102137.00;;;;4982006;28;87866;-70
2022/01/14 00:41:52;;;;;;;24.70;11.77;;;3.70;99.90;3.50;102134.00;;;;5009193;27;108810;-68
2022/01/14 00:44:19;;;;;;;18.73;11.80;;;3.80;99.90;3.50;102136.00;;;;5014504;27;88235;-68
2022/01/14 00:46:47;;;;;;;21.77;11.83;;;3.70;99.90;3.50;102130.00;;;;4994041;27;88535;-68
2022/01/14 00:49:15;;;;;;;23.17;11.70;;;3.70;99.90;3.60;102129.00;;;;4993903;28;87855;-69
2022/01/14 00:51:41;;;;;;;21.50;11.80;;;3.80;99.90;3.60;102130.00;;;;4994973;27;87265;-69
2022/01/14 00:54:08;;;;;;;20.83;10.53;;;3.70;99.90;3.60;102135.00;;;;4993389;28;88327;-69
2022/01/14 00:59:16;;;;;;;24.73;12.20;;;3.70;99.90;3.60;102136.00;;;;4992817;28;88959;-69
2022/01/14 01:01:53;;;;;;;22.07;10.90;;;3.70;99.90;3.50;102144.00;;;;5004904;27;87604;-68
2022/01/14 01:04:34;;;;;;;17.13;11.00;;;3.80;99.90;3.50;102143.00;;;;4994894;27;88977;-68
2022/01/14 01:07:03;;;;;;;24.03;12.30;;;3.80;99.90;3.60;102140.00;;;;4992836;27;88095;-68
2022/01/14 01:09:30;;;;;;;29.07;11.27;;;3.80;99.90;3.60;102140.00;;;;4993845;27;87838;-69
2022/01/14 01:12:14;;;;;;;26.97;12.90;;;3.80;99.90;3.60;102144.00;;;;4975353;28;87885;-68
2022/01/14 01:14:52;;;;;;;20.93;11.57;;;3.80;99.90;3.60;102164.00;;;;4991725;27;90068;-68
2022/01/14 01:17:18;;;;;;;20.17;12.00;;;3.80;99.90;3.60;102159.00;;;;4993834;28;87615;-69
2022/01/14 01:19:44;;;;;;;21.30;11.37;;;3.80;99.90;3.60;102168.00;;;;4996147;27;104943;-68
2022/01/14 01:22:10;;;;;;;22.43;11.83;;;3.80;99.90;3.60;102161.00;;;;5013119;27;109113;-69
2022/01/14 01:24:36;;;;;;;37.37;13.50;;;3.90;99.90;3.60;102157.00;;;;4993543;27;101820;-69
2022/01/14 01:27:06;;;;;;;22.80;11.17;;;3.80;99.90;3.60;102160.00;;;;5013357;27;88822;-68
2022/01/14 01:31:58;;;;;;;23.00;11.60;;;3.80;99.90;3.60;102154.00;;;;4989990;27;94053;-69
2022/01/14 01:34:25;;;;;;;21.63;12.23;;;3.70;99.90;3.60;102149.00;;;;4993032;27;94924;-69
2022/01/14 01:36:54;;;;;;;23.93;12.37;;;3.70;99.90;3.60;102161.00;;;;4993198;28;87575;-69
2022/01/14 01:39:25;;;;;;;24.77;13.23;;;3.80;99.90;3.60;102153.00;;;;4993343;27;87691;-68
2022/01/14 01:41:56;;;;;;;25.73;12.13;;;3.80;99.90;3.50;102166.00;;;;4994170;27;87110;-67
2022/01/14 01:44:24;;;;;;;27.30;13.33;;;3.80;99.90;3.60;102154.00;;;;4996704;27;88279;-68
2022/01/14 01:46:52;;;;;;;29.13;12.27;;;3.80;99.90;3.50;102158.00;;;;4994423;28;90273;-67
2022/01/14 01:49:26;;;;;;;28.77;12.30;;;3.70;99.90;3.50;102142.00;;;;4995605;28;97194;-67
2022/01/14 01:51:53;;;;;;;23.87;11.87;;;3.80;99.90;3.50;102157.00;;;;4991355;28;87687;-70
2022/01/14 01:54:20;;;;;;;27.07;11.67;;;3.70;99.90;3.50;102148.00;;;;4996938;27;88436;-68
2022/01/14 01:56:47;;;;;;;25.30;12.90;;;3.70;99.90;3.50;102146.00;;;;5012176;27;104530;-67
2022/01/14 01:59:13;;;;;;;23.07;11.77;;;3.70;99.90;3.50;102147.00;;;;4997404;27;87679;-68
2022/01/14 02:01:40;;;;;;;24.80;12.57;;;3.70;99.90;3.50;102152.00;;;;4997558;27;101680;-67
2022/01/14 02:04:06;;;;;;;25.87;12.03;;;3.70;99.90;3.50;102144.00;;;;5004124;27;104908;-69
2022/01/14 02:06:37;;;;;;;23.47;12.47;;;3.80;99.90;3.40;102147.00;;;;4998286;27;87313;-68
2022/01/14 02:09:04;;;;;;;24.33;12.07;;;3.70;99.90;3.40;102139.00;;;;4996398;28;87767;-67
2022/01/14 02:11:30;;;;;;;24.83;12.43;;;3.70;99.90;3.40;102152.00;;;;4997414;27;87832;-68
2022/01/14 02:13:58;;;;;;;25.00;11.83;;;3.60;99.90;3.40;102163.00;;;;4996069;27;89351;-67
2022/01/14 02:17:00;;;;;;;23.50;13.53;;;3.60;99.90;3.40;102140.00;;;;5015657;27;89711;-67
2022/01/14 02:19:29;;;;;;;21.97;11.80;;;3.60;99.90;3.40;102156.00;;;;5016127;27;87779;-67
2022/01/14 02:22:10;;;;;;;22.17;12.50;;;3.60;99.90;3.40;102155.00;;;;4977811;28;87941;-68
2022/01/14 02:27:09;;;;;;;23.47;12.90;;;3.60;99.90;3.30;102145.00;;;;4993292;28;88128;-68
2022/01/14 02:29:35;;;;;;;25.40;13.70;;;3.60;99.90;3.40;102147.00;;;;4996434;27;90272;-68
2022/01/14 02:32:01;;;;;;;25.07;12.60;;;3.50;99.90;3.30;102137.00;;;;4995815;27;107176;-68
2022/01/14 02:34:27;;;;;;;23.37;12.30;;;3.60;99.90;3.30;102121.00;;;;4995497;27;105608;-68
2022/01/14 02:36:53;;;;;;;28.83;13.47;;;3.50;99.90;3.30;102121.00;;;;4998887;27;116750;-67
2022/01/14 02:39:20;;;;;;;29.60;14.03;;;3.50;99.90;3.30;102111.00;;;;4977698;28;88808;-67
2022/01/14 02:41:49;;;;;;;24.43;12.67;;;3.50;99.90;3.30;102116.00;;;;4996292;28;87782;-69
2022/01/14 02:44:23;;;;;;;29.57;13.97;;;3.50;99.90;3.30;102108.00;;;;4996239;27;87656;-68
2022/01/14 02:46:54;;;;;;;29.17;14.00;;;3.60;99.90;3.30;102104.00;;;;4995639;28;88326;-68
2022/01/14 02:49:22;;;;;;;29.57;13.93;;;3.60;99.90;3.30;102099.00;;;;4995398;28;88104;-68
2022/01/14 02:51:48;;;;;;;31.43;14.73;;;3.50;99.90;3.30;102102.00;;;;4996609;28;87781;-67
2022/01/14 02:54:21;;;;;;;27.27;14.43;;;3.50;99.90;3.30;102098.00;;;;4995243;27;88116;-68
2022/01/14 02:56:52;;;;;;;34.70;13.87;;;3.50;99.90;3.30;102095.00;;;;4996080;28;87938;-69
2022/01/14 02:59:20;;;;;;;31.47;14.40;;;3.50;99.90;3.30;102093.00;;;;4977137;28;87808;-68
2022/01/14 03:01:49;;;;;;;35.37;15.30;;;3.50;99.90;3.30;102088.00;;;;4996219;27;87704;-68
2022/01/14 03:04:18;;;;;;;32.00;15.53;;;3.50;99.90;3.30;102104.00;;;;4976192;28;89179;-68
2022/01/14 03:06:45;;;;;;;27.43;13.90;;;3.50;99.90;3.30;102098.00;;;;4994882;28;107413;-68
2022/01/14 03:09:11;;;;;;;26.87;15.00;;;3.50;99.90;3.30;102090.00;;;;4994753;28;113933;-68
2022/01/14 03:11:55;;;;;;;30.70;15.00;;;3.50;99.90;3.20;102099.00;;;;4995781;27;107541;-67
2022/01/14 03:14:23;;;;;;;27.57;15.10;;;3.50;99.90;3.20;102098.00;;;;4983352;27;92068;-67
2022/01/14 03:16:54;;;;;;;32.47;15.70;;;3.50;99.90;3.20;102089.00;;;;4995310;28;88559;-67
2022/01/14 03:19:25;;;;;;;32.47;15.90;;;3.50;99.90;3.20;102078.00;;;;4976771;27;93418;-68
2022/01/14 03:22:08;;;;;;;28.53;15.33;;;3.40;99.90;3.20;102080.00;;;;5015570;27;86868;-68
2022/01/14 03:27:04;;;;;;;26.03;14.00;;;3.50;99.90;3.20;102091.00;;;;5011741;27;88023;-70
2022/01/14 03:29:29;;;;;;;32.83;16.50;;;3.40;99.90;3.20;102072.00;;;;5014204;27;88738;-68
2022/01/14 03:31:55;;;;;;;31.40;16.27;;;3.40;99.90;3.20;102080.00;;;;5001719;27;106288;-69
2022/01/14 03:34:21;;;;;;;30.63;15.27;;;3.50;99.90;3.20;102088.00;;;;4993479;27;117499;-69
2022/01/14 03:36:47;;;;;;;32.33;16.90;;;3.50;99.90;3.20;102086.00;;;;4993565;28;115938;-68
2022/01/14 03:39:12;;;;;;;34.57;16.27;;;3.50;99.90;3.20;102082.00;;;;5009425;27;88300;-68
2022/01/14 03:41:38;;;;;;;35.50;16.17;;;3.50;99.90;3.20;102074.00;;;;5014627;27;108430;-69
2022/01/14 03:44:05;;;;;;;33.33;14.70;;;3.40;99.90;3.10;102074.00;;;;5015777;27;88337;-67
2022/01/14 03:46:31;;;;;;;29.87;16.17;;;3.30;99.90;3.10;102062.00;;;;5014876;27;88826;-68
2022/01/14 03:48:56;;;;;;;37.77;17.63;;;3.30;99.90;3.10;102057.00;;;;5014092;27;113892;-68
2022/01/14 03:51:27;;;;;;;31.70;16.10;;;3.40;99.90;3.10;102062.00;;;;5014342;27;103004;-69
2022/01/14 03:53:53;;;;;;;34.50;16.30;;;3.30;99.90;3.10;102050.00;;;;5013612;27;90268;-69
2022/01/14 03:56:18;;;;;;;39.60;16.70;;;3.30;99.90;3.10;102057.00;;;;5015395;27;94435;-68
2022/01/14 03:58:44;;;;;;;33.00;16.00;;;3.30;99.90;3.10;102062.00;;;;5014278;27;97918;-68
2022/01/14 04:01:12;;;;;;;31.97;14.83;;;2.90;99.90;3.10;102052.00;;;;5013483;27;108128;-67
2022/01/14 04:03:40;;;;;;;35.20;16.03;;;3.30;99.90;3.00;102041.00;;;;5012753;27;88722;-67
2022/01/14 04:06:06;;;;;;;31.03;14.10;;;3.30;99.90;3.00;102045.00;;;;5014335;27;88585;-70
2022/01/14 04:08:33;;;;;;;29.70;16.30;;;3.30;99.90;3.00;102048.00;;;;5015194;27;87962;-69
2022/01/14 04:11:02;;;;;;;29.37;14.47;;;3.30;99.90;3.00;102036.00;;;;5014556;27;89520;-68
2022/01/14 04:13:51;;;;;;;36.07;14.70;;;3.30;99.90;3.00;102032.00;;;;5013819;27;88637;-67
2022/01/14 04:16:18;;;;;;;28.80;14.60;;;3.30;99.90;3.00;102031.00;;;;4983560;28;87796;-70
2022/01/14 04:18:45;;;;;;;30.97;15.00;;;3.30;99.90;3.00;102028.00;;;;4993994;27;89294;-70
2022/01/14 04:21:10;;;;;;;28.13;15.60;;;3.20;99.90;3.00;102027.00;;;;4988174;28;91641;-67
2022/01/14 04:23:36;;;;;;;40.17;15.33;;;3.30;99.90;3.00;102021.00;;;;5008102;27;116690;-68
2022/01/14 04:26:03;;;;;;;34.07;16.97;;;3.30;99.90;3.00;102023.00;;;;5013653;27;117209;-67
2022/01/14 04:28:34;;;;;;;28.07;14.57;;;3.30;99.90;3.00;102018.00;;;;5013951;27;87831;-68
2022/01/14 04:31:00;;;;;;;35.03;15.77;;;3.30;99.90;3.00;102019.00;;;;5001005;27;88078;-68
2022/01/14 04:33:29;;;;;;;27.90;14.27;;;3.30;99.90;3.00;102016.00;;;;4994232;27;93630;-68
2022/01/14 04:36:00;;;;;;;31.87;15.33;;;4.00;99.90;3.00;102022.00;;;;4994785;27;88400;-68
2022/01/14 04:38:28;;;;;;;38.03;17.13;;;3.20;99.90;3.00;102020.00;;;;4972161;28;87944;-68
2022/01/14 04:40:54;;;;;;;32.00;15.30;;;3.20;99.90;3.00;102014.00;;;;4989977;27;90286;-67
2022/01/14 04:43:21;;;;;;;29.00;14.43;;;3.20;99.90;3.00;102008.00;;;;4994565;28;89060;-68
2022/01/14 04:48:32;;;;;;;40.00;16.33;;;3.30;99.90;3.00;102012.00;;;;4986064;28;87790;-68
2022/01/14 04:50:59;;;;;;;30.47;14.90;;;3.20;99.90;3.00;102019.00;;;;4971928;28;87894;-67
2022/01/14 04:53:25;;;;;;;28.07;14.60;;;3.20;99.90;2.90;102005.00;;;;4990022;28;88398;-68
2022/01/14 04:55:52;;;;;;;34.50;16.57;;;3.20;99.90;2.90;102021.00;;;;4989068;28;87965;-68
2022/01/14 04:58:19;;;;;;;30.97;15.13;;;3.20;99.90;2.90;102009.00;;;;4992155;27;100633;-67
2022/01/14 05:00:45;;;;;;;32.30;15.97;;;3.20;99.90;2.90;102011.00;;;;4994626;27;87079;-69
2022/01/14 05:03:10;;;;;;;34.27;17.03;;;3.10;99.90;2.90;102017.00;;;;4987185;28;88070;-68
2022/01/14 05:05:40;;;;;;;34.97;16.77;;;3.10;99.90;2.90;102015.00;;;;4992549;28;118604;-68
2022/01/14 05:08:12;;;;;;;35.70;15.47;;;3.10;99.90;2.90;102003.00;;;;4992865;28;88960;-67
2022/01/14 05:13:24;;;;;;;32.43;16.07;;;3.20;99.90;2.90;101980.00;;;;5007411;27;87961;-68
2022/01/14 05:15:51;;;;;;;37.17;16.63;;;3.20;99.90;2.90;101994.00;;;;4993223;28;90012;-67
2022/01/14 05:18:17;;;;;;;28.23;16.27;;;3.20;99.90;2.90;101985.00;;;;4996610;27;87650;-67
2022/01/14 05:20:43;;;;;;;30.27;15.87;;;3.20;99.90;2.90;101974.00;;;;4997324;27;96283;-68
2022/01/14 05:23:09;;;;;;;29.57;15.07;;;3.10;99.90;2.90;101985.00;;;;4995739;28;117423;-68
2022/01/14 05:25:34;;;;;;;36.37;16.13;;;4.80;99.90;2.90;101986.00;;;;5007807;27;94643;-68
2022/01/14 05:28:00;;;;;;;30.43;14.83;;;3.00;99.90;2.80;101984.00;;;;5017221;27;88031;-68
2022/01/14 05:30:27;;;;;;;26.33;14.73;;;3.10;99.90;2.80;101982.00;;;;5007372;27;109692;-68
2022/01/14 05:32:54;;;;;;;40.27;16.67;;;3.00;99.90;2.80;101978.00;;;;4996380;27;88778;-68
2022/01/14 05:35:24;;;;;;;34.93;15.90;;;3.10;99.90;2.80;101981.00;;;;4983431;28;88143;-67
2022/01/14 05:37:51;;;;;;;36.30;16.50;;;3.10;99.90;2.80;101971.00;;;;5009739;27;101840;-68
2022/01/14 05:40:19;;;;;;;34.57;16.40;;;3.10;99.90;2.80;101969.00;;;;5013749;27;94415;-67
2022/01/14 05:42:44;;;;;;;27.93;14.50;;;3.10;99.90;2.80;101981.00;;;;4994693;27;97803;-68
2022/01/14 05:45:13;;;;;;;29.83;14.97;;;3.00;99.90;2.80;101969.00;;;;5011498;27;117802;-67
2022/01/14 05:47:40;;;;;;;32.37;15.33;;;3.10;99.90;2.80;101963.00;;;;5013534;27;87880;-69
2022/01/14 05:50:14;;;;;;;44.00;17.47;;;3.10;99.90;2.80;101959.00;;;;4994865;28;108891;-69
2022/01/14 05:52:41;;;;;;;32.40;15.00;;;3.10;99.90;2.80;101964.00;;;;4998815;27;88161;-67
2022/01/14 05:55:10;;;;;;;29.13;15.03;;;3.10;99.90;2.90;101958.00;;;;4980959;27;92406;-68
2022/01/14 05:57:38;;;;;;;31.40;14.30;;;3.00;99.90;2.80;101959.00;;;;5015336;27;88790;-67
2022/01/14 06:00:17;;;;;;;37.67;15.73;;;3.10;99.90;2.80;101962.00;;;;5016552;27;87915;-67
2022/01/14 06:02:44;;;;;;;33.70;16.20;;;3.00;99.90;2.80;101961.00;;;;4997942;27;89055;-67
2022/01/14 06:05:10;;;;;;;39.17;16.37;;;3.10;99.90;2.80;101960.00;;;;5015405;27;87843;-67
2022/01/14 06:07:36;;;;;;;31.37;16.67;;;3.00;99.90;2.80;101968.00;;;;5016765;27;87733;-67
2022/01/14 06:10:03;;;;;;;24.50;11.50;;;3.00;99.90;2.80;101962.00;;;;5015908;27;94567;-68
2022/01/14 06:12:28;;;;;;;31.23;14.83;;;3.10;99.90;2.80;101958.00;;;;4997091;27;101453;-67
2022/01/14 06:14:54;;;;;;;30.17;15.43;;;3.10;99.90;2.80;101957.00;;;;5015632;27;116675;-67
2022/01/14 06:17:20;;;;;;;35.30;16.90;;;3.10;99.90;2.80;101965.00;;;;5015503;27;113377;-69
2022/01/14 06:19:45;;;;;;;34.00;16.17;;;3.00;99.90;2.80;101950.00;;;;4997236;27;90656;-68
2022/01/14 06:22:11;;;;;;;26.27;14.10;;;3.00;99.90;2.80;101955.00;;;;5007611;27;90313;-67
2022/01/14 06:24:37;;;;;;;28.90;15.20;;;3.10;99.90;2.80;101947.00;;;;4995721;27;100704;-67
2022/01/14 06:27:03;;;;;;;36.47;15.47;;;3.10;99.90;2.80;101954.00;;;;4995956;28;113064;-67
2022/01/14 06:29:29;;;;;;;29.83;14.77;;;3.10;99.90;2.80;101952.00;;;;5009132;27;96599;-68
2022/01/14 06:31:55;;;;;;;30.10;14.60;;;3.00;99.90;2.80;101952.00;;;;4994092;28;87926;-67
2022/01/14 06:34:21;;;;;;;36.37;15.67;;;3.00;99.90;2.80;101948.00;;;;4987020;28;116979;-67
2022/01/14 06:36:46;;;;;;;31.93;15.90;;;3.80;99.90;2.80;101938.00;;;;4996595;28;88187;-67
2022/01/14 06:39:12;;;;;;;30.23;14.83;;;3.10;99.90;2.80;101941.00;;;;4995223;28;110083;-68
2022/01/14 06:41:38;;;;;;;32.37;14.77;;;3.10;99.90;2.80;101928.00;;;;5013948;27;87964;-67
2022/01/14 06:44:07;;;;;;;28.77;13.93;;;3.00;99.90;2.80;101925.00;;;;5004539;27;104328;-67
2022/01/14 06:46:33;;;;;;;33.47;15.27;;;3.00;99.90;2.80;101934.00;;;;4995807;27;88734;-66
2022/01/14 06:48:59;;;;;;;27.90;15.80;;;3.00;99.90;2.80;101926.00;;;;4996321;27;108457;-67
2022/01/14 06:51:25;;;;;;;26.60;13.67;;;3.00;99.90;2.80;101931.00;;;;4996106;28;88224;-67
2022/01/14 06:53:51;;;;;;;29.37;14.80;;;3.00;99.90;2.80;101921.00;;;;4996135;27;101913;-67
2022/01/14 06:56:16;;;;;;;30.20;14.73;;;3.10;99.90;2.80;101931.00;;;;4995679;28;87882;-68
2022/01/14 06:58:43;;;;;;;25.90;12.67;;;2.90;99.90;2.80;101910.00;;;;4997209;27;87935;-66
2022/01/14 07:01:10;;;;;;;26.60;12.97;;;3.00;99.90;2.80;101928.00;;;;4996425;27;88588;-66
2022/01/14 07:03:35;;;;;;;30.77;15.33;;;3.10;99.90;2.80;101929.00;;;;4995482;27;100496;-67
2022/01/14 07:06:02;;;;;;;34.37;16.60;;;3.00;99.90;2.80;101929.00;;;;4994681;28;112734;-67
2022/01/14 07:08:27;;;;;;;29.40;14.33;;;2.60;99.90;2.80;101926.00;;;;4995817;27;87849;-67
2022/01/14 07:10:53;;;;;;;28.03;14.07;;;3.30;99.90;2.90;101921.00;;;;4995493;28;89040;-67
2022/01/14 07:13:19;;;;;;;33.60;15.20;;;3.50;99.90;2.90;101930.00;;;;4996332;28;91629;-67
2022/01/14 07:15:44;;;;;;;29.13;14.77;;;3.10;99.90;2.90;101931.00;;;;5006048;27;113580;-67
2022/01/14 07:18:10;;;;;;;25.03;14.00;;;3.00;99.90;2.90;101936.00;;;;5010206;27;109374;-67
2022/01/14 07:20:37;;;;;;;26.00;13.60;;;3.10;99.90;2.90;101934.00;;;;4995762;28;89025;-68
2022/01/14 07:23:03;;;;;;;33.00;14.43;;;3.20;99.90;2.90;101943.00;;;;4995079;28;88703;-68
2022/01/14 07:25:29;;;;;;;27.17;15.10;;;2.60;99.90;2.90;101930.00;;;;4997174;27;97155;-67
2022/01/14 07:27:56;;;;;;;24.23;13.10;;;3.10;99.90;2.90;101916.00;;;;4996619;28;87269;-67
2022/01/14 07:30:22;;;;;;;26.60;13.37;;;3.10;99.90;2.90;101912.00;;;;5003934;27;88853;-67
2022/01/14 07:32:48;;;;;;;28.63;14.03;;;3.30;99.90;3.00;101913.00;;;;5014225;27;88584;-67
2022/01/14 07:35:14;;;;;;;28.13;14.37;;;3.20;99.90;3.00;101920.00;;;;5006528;27;113095;-67
2022/01/14 07:37:40;;;;;;;23.97;10.93;;;3.10;99.90;2.90;101901.00;;;;4977040;28;87786;-67
2022/01/14 07:40:06;;;;;;;23.30;11.40;;;3.20;99.90;3.00;101910.00;;;;4993944;27;88466;-66
2022/01/14 07:42:33;;;;;;;27.23;12.63;;;3.20;99.90;2.90;101899.00;;;;4995070;28;88674;-67
2022/01/14 07:44:59;;;;;;;26.30;12.30;;;3.10;99.90;3.00;101904.00;;;;4996180;27;88137;-67
2022/01/14 07:47:25;;;;;;;20.73;10.60;;;3.20;99.90;2.90;101889.00;;;;4995851;28;88273;-67
2022/01/14 07:49:53;;;;;;;22.77;10.63;;;3.20;99.90;2.90;101908.00;;;;4994988;27;89029;-66
2022/01/14 07:52:19;;;;;;;25.13;11.73;;;3.20;99.90;2.90;101907.00;;;;4995167;27;88142;-66
2022/01/14 07:54:44;;;;;;;25.00;12.37;;;3.20;99.90;2.90;101923.00;;;;4996318;27;87955;-66
2022/01/14 07:57:11;;;;;;;21.80;11.80;;;3.20;99.90;3.00;101918.00;;;;4995346;28;87680;-67
2022/01/14 07:59:38;;;;;;;19.83;10.67;;;3.20;99.90;3.00;101927.00;;;;4994265;27;90036;-67
2022/01/14 08:02:05;;;;;;;22.27;11.17;;;3.80;99.90;3.00;101924.00;;;;4994940;27;88086;-67
2022/01/14 08:04:34;;;;;;;23.70;11.20;;;3.20;99.90;3.00;101928.00;;;;4983658;28;87586;-67
2022/01/14 08:07:08;;;;;;;19.93;11.23;;;3.20;99.90;3.00;101920.00;;;;4976492;28;87812;-67
2022/01/14 08:09:40;;;;;;;24.97;11.80;;;3.30;99.90;3.00;101932.00;;;;4994347;28;89007;-68
2022/01/14 08:12:07;;;;;;;20.80;10.23;;;3.90;99.90;3.00;101953.00;;;;4979374;28;87782;-66
2022/01/14 08:14:34;;;;;;;22.73;11.37;;;3.30;99.90;3.00;101950.00;;;;4993788;28;87722;-67
2022/01/14 08:17:00;;;;;;;26.50;11.13;;;3.20;99.90;3.00;101958.00;;;;4977627;28;86852;-68
2022/01/14 08:19:26;;;;;;;21.73;10.97;;;3.20;99.90;3.00;101950.00;;;;4974629;28;106681;-68
2022/01/14 08:21:51;;;;;;;21.33;11.27;;;3.20;99.90;3.00;101951.00;;;;4975289;28;90152;-67
2022/01/14 08:24:17;;;;;;;23.83;11.37;;;3.20;99.90;3.10;101947.00;;;;4993756;28;102402;-68
2022/01/14 08:26:43;;;;;;;24.83;11.70;;;3.30;99.90;3.10;101947.00;;;;5013433;27;109493;-68
2022/01/14 08:29:08;;;;;;;21.60;12.63;;;3.30;99.90;3.10;101956.00;;;;4994107;27;116746;-68
2022/01/14 08:31:34;;;;;;;19.57;11.17;;;3.20;99.90;3.10;101963.00;;;;5013246;27;118080;-67
2022/01/14 08:34:00;;;;;;;25.03;12.40;;;3.40;99.90;3.10;101969.00;;;;4994548;27;99018;-68
2022/01/14 08:36:28;;;;;;;22.53;13.33;;;3.30;99.90;3.10;101967.00;;;;4994536;27;87685;-68
2022/01/14 08:38:54;;;;;;;20.13;11.43;;;3.30;99.90;3.10;101968.00;;;;4993373;28;89203;-67
2022/01/14 08:41:19;;;;;;;22.00;12.33;;;3.40;99.90;3.10;101988.00;;;;5011117;27;87719;-68
2022/01/14 08:43:47;;;;;;;22.80;11.67;;;3.50;99.90;3.10;101962.00;;;;5014401;27;87839;-68
2022/01/14 08:46:14;;;;;;;21.13;11.63;;;3.30;99.90;3.10;101971.00;;;;4998972;27;87695;-68
2022/01/14 08:48:40;;;;;;;18.07;10.70;;;3.40;99.90;3.10;101977.00;;;;4993176;27;88909;-68
2022/01/14 08:51:06;;;;;;;23.43;13.10;;;3.20;99.90;3.10;101975.00;;;;4992916;27;119614;-68
2022/01/14 08:53:32;;;;;;;24.43;12.20;;;3.30;99.90;3.10;101964.00;;;;4993802;28;87656;-69
2022/01/14 08:55:58;;;;;;;21.63;10.80;;;3.40;99.90;3.10;101965.00;;;;4977038;27;108222;-68
2022/01/14 08:58:24;;;;;;;22.70;12.17;;;3.40;99.90;3.20;101972.00;;;;5012836;27;117421;-69
2022/01/14 09:00:50;;;;;;;32.10;14.23;;;3.30;99.90;3.20;101967.00;;;;5012914;27;92318;-68
2022/01/14 09:03:15;;;;;;;19.30;10.07;;;3.40;99.90;3.20;101972.00;;;;5013806;27;87922;-68
2022/01/14 09:05:41;;;;;;;16.10;10.80;;;3.40;99.90;3.20;101973.00;;;;5014485;27;103610;-68
2022/01/14 09:08:07;;;;;;;19.67;11.53;;;3.40;99.90;3.20;101965.00;;;;4994789;27;103377;-69
2022/01/14 09:10:32;;;;;;;20.37;11.23;;;3.40;99.90;3.20;101955.00;;;;4990788;28;117202;-68
2022/01/14 09:12:58;;;;;;;27.07;12.47;;;3.40;99.90;3.20;101953.00;;;;4992165;28;114166;-68
2022/01/14 09:15:24;;;;;;;23.67;12.60;;;3.50;99.90;3.20;101963.00;;;;4992436;27;108820;-68
2022/01/14 09:17:50;;;;;;;24.20;12.90;;;3.40;99.90;3.20;101958.00;;;;5001943;27;105128;-68
2022/01/14 09:20:16;;;;;;;28.13;13.47;;;3.30;99.90;3.20;101936.00;;;;5013670;27;88148;-69
2022/01/14 09:22:48;;;;;;;31.93;15.10;;;3.50;99.90;3.20;101937.00;;;;4994730;27;88198;-69
2022/01/14 09:25:16;;;;;;;26.10;14.43;;;3.40;99.90;3.20;101948.00;;;;4994045;27;87789;-69
2022/01/14 09:27:41;;;;;;;24.77;12.90;;;3.50;99.90;3.20;101957.00;;;;5000021;27;87853;-68
2022/01/14 09:30:08;;;;;;;27.17;12.47;;;3.50;99.90;3.20;101949.00;;;;4993205;27;110191;-68
2022/01/14 09:32:34;;;;;;;20.40;12.10;;;3.50;99.90;3.20;101953.00;;;;4993402;28;88034;-67
2022/01/14 09:35:04;;;;;;;28.63;13.90;;;3.40;99.90;3.20;101946.00;;;;5011894;27;108493;-67
2022/01/14 09:37:30;;;;;;;22.77;11.93;;;3.40;99.90;3.20;101949.00;;;;4977970;27;91088;-67
2022/01/14 09:39:56;;;;;;;30.27;13.17;;;3.50;99.90;3.20;101953.00;;;;5013493;27;94170;-67
2022/01/14 09:42:22;;;;;;;24.17;13.17;;;3.40;99.90;3.20;101947.00;;;;5012488;27;113407;-67
2022/01/14 09:44:47;;;;;;;26.77;13.30;;;3.40;99.90;3.20;101944.00;;;;5011000;27;108943;-67
2022/01/14 09:47:18;;;;;;;27.80;12.60;;;3.40;99.90;3.20;101948.00;;;;5000227;27;88862;-69
2022/01/14 09:49:46;;;;;;;22.97;11.93;;;3.30;99.90;3.20;101952.00;;;;4974407;28;89075;-68
2022/01/14 09:52:13;;;;;;;21.33;12.80;;;3.40;99.90;3.20;101957.00;;;;4993805;28;87891;-69
2022/01/14 09:54:45;;;;;;;24.07;13.07;;;3.40;99.90;3.20;101942.00;;;;4977127;27;87375;-68
2022/01/14 09:57:14;;;;;;;27.90;13.60;;;3.40;99.90;3.20;101940.00;;;;5013484;27;88098;-68
2022/01/14 09:59:40;;;;;;;32.30;13.87;;;3.40;99.90;3.20;101940.00;;;;5010598;27;88894;-69
2022/01/14 10:02:07;;;;;;;29.90;14.23;;;3.50;99.90;3.20;101942.00;;;;4973230;28;111514;-68
2022/01/14 10:04:35;;;;;;;23.73;13.10;;;3.40;99.90;3.20;101939.00;;;;4995633;27;87705;-68
2022/01/14 10:07:03;;;;;;;28.20;14.83;;;3.40;99.90;3.20;101930.00;;;;4996377;28;89153;-68
2022/01/14 10:09:39;;;;;;;26.13;12.93;;;3.30;99.90;3.20;101933.00;;;;4978393;27;88691;-68
2022/01/14 10:12:13;;;;;;;26.73;12.50;;;3.40;99.90;3.20;101922.00;;;;4998700;27;88016;-69
2022/01/14 10:14:45;;;;;;;21.77;10.23;;;3.40;99.90;3.20;101923.00;;;;5016623;27;87955;-68
2022/01/14 10:17:12;;;;;;;26.13;13.93;;;3.40;99.90;3.20;101927.00;;;;5016251;27;89009;-69
2022/01/14 10:19:43;;;;;;;25.77;13.17;;;3.50;99.90;3.20;101931.00;;;;5016507;27;88383;-67
2022/01/14 10:22:30;;;;;;;25.20;13.60;;;3.40;99.90;3.30;101941.00;;;;5016859;27;87924;-67
2022/01/14 10:25:07;;;;;;;27.10;12.83;;;3.50;99.90;3.30;101932.00;;;;4997741;27;87796;-68
2022/01/14 10:27:42;;;;;;;25.73;12.20;;;3.50;99.90;3.30;101924.00;;;;5014061;27;93571;-68
2022/01/14 10:30:28;;;;;;;30.17;12.83;;;3.50;99.90;3.40;101945.00;;;;4977772;28;89218;-69
2022/01/14 10:33:03;;;;;;;30.57;14.40;;;3.60;99.90;3.40;101928.00;;;;4996157;27;87476;-68
2022/01/14 10:35:34;;;;;;;24.10;12.97;;;3.60;99.90;3.40;101928.00;;;;4996422;28;87796;-68
2022/01/14 10:38:04;;;;;;;27.20;14.50;;;3.70;99.90;3.50;101920.00;;;;4995773;28;89095;-68
2022/01/14 10:40:35;;;;;;;21.33;12.87;;;3.60;99.90;3.50;101902.00;;;;4997051;27;88829;-68
2022/01/14 10:43:08;;;;;;;28.80;13.17;;;3.70;99.90;3.60;101896.00;;;;4996401;27;87885;-67
2022/01/14 10:45:35;;;;;;;22.00;12.03;;;3.80;99.90;3.60;101904.00;;;;4997094;27;87183;-68
2022/01/14 10:48:10;;;;;;;27.30;13.63;;;3.80;99.90;3.60;101892.00;;;;4995203;27;107167;-67
2022/01/14 10:50:55;;;;;;;25.17;12.20;;;3.60;99.90;3.60;101892.00;;;;4977586;28;88025;-68
2022/01/14 10:53:31;;;;;;;24.53;12.20;;;3.90;99.90;3.70;101901.00;;;;4976651;28;88954;-68
2022/01/14 10:56:12;;;;;;;20.87;11.37;;;4.00;99.90;3.70;101891.00;;;;5010394;27;97204;-68
2022/01/14 10:58:47;;;;;;;24.17;13.33;;;3.90;99.90;3.70;101909.00;;;;5015194;27;87946;-68
2022/01/14 11:01:21;;;;;;;24.13;12.70;;;3.90;99.90;3.80;101905.00;;;;4979913;27;99676;-68
2022/01/14 11:03:56;;;;;;;22.00;12.67;;;3.90;99.90;3.80;101902.00;;;;4989006;28;88084;-69
2022/01/14 11:06:30;;;;;;;24.67;12.60;;;4.00;99.90;3.80;101887.00;;;;5016648;27;87752;-67
2022/01/14 11:09:07;;;;;;;24.30;12.80;;;4.00;99.90;3.80;101897.00;;;;5008890;27;101280;-68
2022/01/14 11:11:38;;;;;;;18.80;12.20;;;4.10;99.90;3.90;101886.00;;;;4996770;27;101877;-68
2022/01/14 11:14:06;;;;;;;23.33;12.47;;;4.10;99.90;3.90;101870.00;;;;4995817;27;87985;-68